Huvudsida
METAR-TAF:

METAR-TAF

Flygplatser :

Luni

Sarzana, Italien

latitud: 44-05N, longitud: 009-59E, höjd: 9 m

Aktuellt väderrapport

Denna rapport gjordes för 2 timmar och 50 minuter sedan, klockan 11:55 UTC
Vind 6 kt från syd
Temperatur 21°C
Fuktighet 12%
Tryck 1022 hPa
Sikt 10 km eller mer
Inga moln under 1 500 m eller inga cumulonimbus

METAR: LIQW 091155Z 18006KT CAVOK 21/M09 Q1022 RMK SKC VIS MIN 9999 WIND THR18 22008KT BLU

Tid: 16:45 (14:45 UTC)

Väderprognos

Denna rapport gjordes för 3 timmar och 45 minuter sedan, klockan 11:00 UTC
Prognos gäller från 09 kl. 12 UTC till 09 kl. 21 UTC
Vind 8 kt från nord/nordost
Sikt 10 km eller mer
Inga moln under 1 500 m eller inga cumulonimbus

TAF: LIQW 091100Z 0912/0921 02008KT CAVOK

Aktuella väderrapporter och prognoser från 4000 flygplatser (METAR- och TAF-rapporter).

De tillgängliga stationerna syns som gula och röda prickar på kartan.

För musen över prickarna för att se namnen på stationerna.

Klicka sedan för att få väderrapporter och prognoser.

För att ändra kartan: Klicka på de gröna knapparna med ett svart kors på för att zooma in; den gröna knappen med ett streck på för att zooma ut; eller på de gröna pilarna för angränsande kartor.


METAR-TAF: